sensor_id;sensor_type;location;lat;lon;timestamp;P1;durP1;ratioP1;P2;durP2;ratioP2
295;SDS011;132;48.770;9.200;2023-09-07T00:00:57;6.83;;;3.73;;
295;SDS011;132;48.770;9.200;2023-09-07T00:03:46;5.87;;;4.13;;
295;SDS011;132;48.770;9.200;2023-09-07T00:06:32;6.20;;;4.00;;
295;SDS011;132;48.770;9.200;2023-09-07T00:09:20;6.83;;;4.10;;
295;SDS011;132;48.770;9.200;2023-09-07T00:12:08;7.47;;;4.30;;
295;SDS011;132;48.770;9.200;2023-09-07T00:14:54;8.30;;;4.23;;
295;SDS011;132;48.770;9.200;2023-09-07T00:17:41;6.80;;;4.57;;
295;SDS011;132;48.770;9.200;2023-09-07T00:20:28;5.03;;;4.23;;
295;SDS011;132;48.770;9.200;2023-09-07T00:23:14;6.23;;;4.30;;
295;SDS011;132;48.770;9.200;2023-09-07T00:26:01;6.40;;;4.37;;
295;SDS011;132;48.770;9.200;2023-09-07T00:28:48;10.73;;;4.57;;
295;SDS011;132;48.770;9.200;2023-09-07T00:31:35;9.70;;;4.50;;
295;SDS011;132;48.770;9.200;2023-09-07T00:34:21;7.27;;;4.60;;
295;SDS011;132;48.770;9.200;2023-09-07T00:37:08;5.80;;;4.70;;
295;SDS011;132;48.770;9.200;2023-09-07T00:39:54;6.70;;;4.63;;
295;SDS011;132;48.770;9.200;2023-09-07T00:42:41;10.57;;;4.60;;
295;SDS011;132;48.770;9.200;2023-09-07T00:45:28;5.97;;;4.33;;
295;SDS011;132;48.770;9.200;2023-09-07T00:48:15;5.80;;;4.37;;
295;SDS011;132;48.770;9.200;2023-09-07T00:51:02;6.90;;;4.53;;
295;SDS011;132;48.770;9.200;2023-09-07T00:53:49;5.53;;;4.30;;
295;SDS011;132;48.770;9.200;2023-09-07T00:56:36;6.97;;;4.13;;
295;SDS011;132;48.770;9.200;2023-09-07T00:59:23;6.27;;;4.60;;
295;SDS011;132;48.770;9.200;2023-09-07T01:02:11;6.27;;;4.10;;
295;SDS011;132;48.770;9.200;2023-09-07T01:04:57;7.10;;;4.70;;
295;SDS011;132;48.770;9.200;2023-09-07T01:07:46;5.97;;;4.30;;
295;SDS011;132;48.770;9.200;2023-09-07T01:10:36;5.43;;;3.93;;
295;SDS011;132;48.770;9.200;2023-09-07T01:13:23;6.33;;;4.10;;
295;SDS011;132;48.770;9.200;2023-09-07T01:16:10;6.90;;;4.17;;
295;SDS011;132;48.770;9.200;2023-09-07T01:18:58;6.80;;;4.13;;
295;SDS011;132;48.770;9.200;2023-09-07T01:21:44;5.17;;;3.73;;
295;SDS011;132;48.770;9.200;2023-09-07T01:24:32;5.43;;;4.00;;
295;SDS011;132;48.770;9.200;2023-09-07T01:27:21;10.37;;;4.50;;
295;SDS011;132;48.770;9.200;2023-09-07T01:30:07;6.27;;;4.50;;
295;SDS011;132;48.770;9.200;2023-09-07T01:32:55;7.33;;;4.40;;
295;SDS011;132;48.770;9.200;2023-09-07T01:35:41;6.20;;;4.70;;
295;SDS011;132;48.770;9.200;2023-09-07T01:38:28;7.53;;;4.37;;
295;SDS011;132;48.770;9.200;2023-09-07T01:41:15;5.80;;;4.20;;
295;SDS011;132;48.770;9.200;2023-09-07T01:44:02;6.17;;;4.27;;
295;SDS011;132;48.770;9.200;2023-09-07T01:46:49;5.90;;;4.00;;
295;SDS011;132;48.770;9.200;2023-09-07T01:49:35;7.80;;;4.40;;
295;SDS011;132;48.770;9.200;2023-09-07T01:52:22;5.83;;;4.47;;
295;SDS011;132;48.770;9.200;2023-09-07T01:55:09;10.10;;;4.53;;
295;SDS011;132;48.770;9.200;2023-09-07T01:57:56;9.50;;;4.90;;
295;SDS011;132;48.770;9.200;2023-09-07T02:00:43;8.40;;;4.60;;
295;SDS011;132;48.770;9.200;2023-09-07T02:03:29;6.60;;;4.90;;
295;SDS011;132;48.770;9.200;2023-09-07T02:06:16;6.90;;;5.40;;
295;SDS011;132;48.770;9.200;2023-09-07T02:09:03;8.77;;;5.30;;
295;SDS011;132;48.770;9.200;2023-09-07T02:11:50;7.37;;;5.00;;
295;SDS011;132;48.770;9.200;2023-09-07T02:14:37;6.40;;;4.77;;
295;SDS011;132;48.770;9.200;2023-09-07T02:17:25;7.83;;;5.20;;
295;SDS011;132;48.770;9.200;2023-09-07T02:20:11;7.03;;;5.20;;
295;SDS011;132;48.770;9.200;2023-09-07T02:22:58;9.30;;;5.90;;
295;SDS011;132;48.770;9.200;2023-09-07T02:25:46;7.30;;;5.30;;
295;SDS011;132;48.770;9.200;2023-09-07T02:28:32;7.90;;;5.20;;
295;SDS011;132;48.770;9.200;2023-09-07T02:31:19;7.23;;;5.17;;
295;SDS011;132;48.770;9.200;2023-09-07T02:34:06;9.17;;;5.20;;
295;SDS011;132;48.770;9.200;2023-09-07T02:36:54;6.47;;;5.00;;
295;SDS011;132;48.770;9.200;2023-09-07T02:39:41;9.33;;;5.53;;
295;SDS011;132;48.770;9.200;2023-09-07T02:42:29;8.07;;;5.43;;
295;SDS011;132;48.770;9.200;2023-09-07T02:45:15;7.27;;;5.23;;
295;SDS011;132;48.770;9.200;2023-09-07T02:48:02;8.60;;;5.10;;
295;SDS011;132;48.770;9.200;2023-09-07T02:50:50;8.63;;;5.20;;
295;SDS011;132;48.770;9.200;2023-09-07T02:53:37;8.67;;;5.37;;
295;SDS011;132;48.770;9.200;2023-09-07T02:56:24;7.93;;;5.40;;
295;SDS011;132;48.770;9.200;2023-09-07T02:59:11;7.70;;;5.10;;
295;SDS011;132;48.770;9.200;2023-09-07T03:01:58;10.00;;;5.50;;
295;SDS011;132;48.770;9.200;2023-09-07T03:04:44;9.43;;;6.00;;
295;SDS011;132;48.770;9.200;2023-09-07T03:07:32;6.90;;;5.00;;
295;SDS011;132;48.770;9.200;2023-09-07T03:10:19;8.23;;;5.50;;
295;SDS011;132;48.770;9.200;2023-09-07T03:13:07;11.27;;;5.13;;
295;SDS011;132;48.770;9.200;2023-09-07T03:15:54;6.70;;;5.27;;
295;SDS011;132;48.770;9.200;2023-09-07T03:18:41;6.83;;;5.50;;
295;SDS011;132;48.770;9.200;2023-09-07T03:21:28;8.20;;;5.30;;
295;SDS011;132;48.770;9.200;2023-09-07T03:24:16;8.03;;;5.40;;
295;SDS011;132;48.770;9.200;2023-09-07T03:27:03;8.00;;;5.93;;
295;SDS011;132;48.770;9.200;2023-09-07T03:29:51;9.03;;;5.57;;
295;SDS011;132;48.770;9.200;2023-09-07T03:32:40;8.37;;;5.80;;
295;SDS011;132;48.770;9.200;2023-09-07T03:35:26;7.47;;;5.13;;
295;SDS011;132;48.770;9.200;2023-09-07T03:38:13;8.50;;;5.37;;
295;SDS011;132;48.770;9.200;2023-09-07T03:41:00;6.83;;;5.20;;
295;SDS011;132;48.770;9.200;2023-09-07T03:43:46;8.63;;;5.50;;
295;SDS011;132;48.770;9.200;2023-09-07T03:46:33;8.33;;;5.90;;
295;SDS011;132;48.770;9.200;2023-09-07T03:49:20;6.83;;;5.30;;
295;SDS011;132;48.770;9.200;2023-09-07T03:52:07;8.67;;;5.60;;
295;SDS011;132;48.770;9.200;2023-09-07T03:54:56;9.13;;;6.70;;
295;SDS011;132;48.770;9.200;2023-09-07T03:57:43;9.20;;;5.90;;
295;SDS011;132;48.770;9.200;2023-09-07T04:00:30;8.27;;;5.53;;
295;SDS011;132;48.770;9.200;2023-09-07T04:03:17;7.70;;;5.80;;
295;SDS011;132;48.770;9.200;2023-09-07T04:06:04;7.80;;;5.10;;
295;SDS011;132;48.770;9.200;2023-09-07T04:08:50;9.37;;;5.90;;
295;SDS011;132;48.770;9.200;2023-09-07T04:11:37;8.63;;;5.50;;
295;SDS011;132;48.770;9.200;2023-09-07T04:14:23;7.73;;;5.90;;
295;SDS011;132;48.770;9.200;2023-09-07T04:17:11;7.33;;;5.90;;
295;SDS011;132;48.770;9.200;2023-09-07T04:19:58;8.67;;;6.00;;
295;SDS011;132;48.770;9.200;2023-09-07T04:22:44;9.80;;;5.70;;
295;SDS011;132;48.770;9.200;2023-09-07T04:25:31;9.00;;;6.27;;
295;SDS011;132;48.770;9.200;2023-09-07T04:28:21;8.90;;;6.00;;
295;SDS011;132;48.770;9.200;2023-09-07T04:31:07;7.60;;;5.70;;
295;SDS011;132;48.770;9.200;2023-09-07T04:33:54;9.97;;;5.60;;
295;SDS011;132;48.770;9.200;2023-09-07T04:36:40;10.53;;;6.37;;
295;SDS011;132;48.770;9.200;2023-09-07T04:39:27;9.17;;;6.00;;
295;SDS011;132;48.770;9.200;2023-09-07T04:42:14;7.50;;;6.07;;
295;SDS011;132;48.770;9.200;2023-09-07T04:45:00;10.13;;;5.90;;
295;SDS011;132;48.770;9.200;2023-09-07T04:47:49;7.83;;;5.70;;
295;SDS011;132;48.770;9.200;2023-09-07T04:50:36;9.40;;;6.27;;
295;SDS011;132;48.770;9.200;2023-09-07T04:53:23;8.00;;;6.17;;
295;SDS011;132;48.770;9.200;2023-09-07T04:56:10;10.10;;;5.70;;
295;SDS011;132;48.770;9.200;2023-09-07T04:58:58;9.43;;;6.10;;
295;SDS011;132;48.770;9.200;2023-09-07T05:01:45;9.07;;;6.27;;
295;SDS011;132;48.770;9.200;2023-09-07T05:04:32;10.07;;;6.47;;
295;SDS011;132;48.770;9.200;2023-09-07T05:07:19;12.60;;;7.00;;
295;SDS011;132;48.770;9.200;2023-09-07T05:10:06;10.20;;;6.10;;
295;SDS011;132;48.770;9.200;2023-09-07T05:12:55;9.23;;;6.37;;
295;SDS011;132;48.770;9.200;2023-09-07T05:15:49;10.13;;;6.27;;
295;SDS011;132;48.770;9.200;2023-09-07T05:18:37;11.93;;;6.10;;
295;SDS011;132;48.770;9.200;2023-09-07T05:21:24;8.40;;;6.40;;
295;SDS011;132;48.770;9.200;2023-09-07T05:24:13;11.47;;;6.80;;
295;SDS011;132;48.770;9.200;2023-09-07T05:27:01;8.37;;;6.00;;
295;SDS011;132;48.770;9.200;2023-09-07T05:29:49;10.20;;;6.50;;
295;SDS011;132;48.770;9.200;2023-09-07T05:32:36;10.40;;;6.67;;
295;SDS011;132;48.770;9.200;2023-09-07T05:35:23;9.53;;;6.50;;
295;SDS011;132;48.770;9.200;2023-09-07T05:38:13;9.03;;;6.70;;
295;SDS011;132;48.770;9.200;2023-09-07T05:41:02;9.17;;;6.13;;
295;SDS011;132;48.770;9.200;2023-09-07T05:43:48;8.27;;;6.03;;
295;SDS011;132;48.770;9.200;2023-09-07T05:46:35;10.07;;;6.23;;
295;SDS011;132;48.770;9.200;2023-09-07T05:49:22;12.03;;;7.90;;
295;SDS011;132;48.770;9.200;2023-09-07T05:52:08;11.33;;;7.30;;
295;SDS011;132;48.770;9.200;2023-09-07T05:54:55;10.23;;;6.70;;
295;SDS011;132;48.770;9.200;2023-09-07T05:57:42;10.70;;;7.07;;
295;SDS011;132;48.770;9.200;2023-09-07T06:00:28;12.97;;;7.03;;
295;SDS011;132;48.770;9.200;2023-09-07T06:03:15;10.83;;;7.10;;
295;SDS011;132;48.770;9.200;2023-09-07T06:06:02;10.77;;;7.20;;
295;SDS011;132;48.770;9.200;2023-09-07T06:08:49;10.03;;;6.50;;
295;SDS011;132;48.770;9.200;2023-09-07T06:11:36;8.77;;;6.70;;
295;SDS011;132;48.770;9.200;2023-09-07T06:14:24;11.80;;;7.20;;
295;SDS011;132;48.770;9.200;2023-09-07T06:17:11;10.77;;;7.23;;
295;SDS011;132;48.770;9.200;2023-09-07T06:19:58;11.03;;;7.60;;
295;SDS011;132;48.770;9.200;2023-09-07T06:22:45;12.40;;;7.63;;
295;SDS011;132;48.770;9.200;2023-09-07T06:25:32;13.30;;;7.67;;
295;SDS011;132;48.770;9.200;2023-09-07T06:28:21;10.20;;;7.13;;
295;SDS011;132;48.770;9.200;2023-09-07T06:31:07;11.53;;;8.23;;
295;SDS011;132;48.770;9.200;2023-09-07T06:33:54;12.23;;;8.27;;
295;SDS011;132;48.770;9.200;2023-09-07T06:36:41;10.07;;;7.30;;
295;SDS011;132;48.770;9.200;2023-09-07T06:39:28;12.60;;;8.37;;
295;SDS011;132;48.770;9.200;2023-09-07T06:42:14;18.60;;;8.17;;
295;SDS011;132;48.770;9.200;2023-09-07T06:45:08;12.23;;;7.73;;
295;SDS011;132;48.770;9.200;2023-09-07T06:47:56;11.10;;;7.90;;
295;SDS011;132;48.770;9.200;2023-09-07T06:50:45;15.67;;;8.70;;
295;SDS011;132;48.770;9.200;2023-09-07T06:53:32;13.00;;;12.30;;
295;SDS011;132;48.770;9.200;2023-09-07T06:56:18;76.03;;;72.33;;
295;SDS011;132;48.770;9.200;2023-09-07T06:59:05;149.13;;;141.97;;
295;SDS011;132;48.770;9.200;2023-09-07T07:01:52;195.13;;;185.80;;
295;SDS011;132;48.770;9.200;2023-09-07T07:04:40;254.63;;;242.43;;
295;SDS011;132;48.770;9.200;2023-09-07T07:07:26;304.33;;;289.80;;
295;SDS011;132;48.770;9.200;2023-09-07T07:10:15;323.63;;;308.17;;
295;SDS011;132;48.770;9.200;2023-09-07T07:13:01;389.23;;;370.67;;
295;SDS011;132;48.770;9.200;2023-09-07T07:15:49;409.57;;;390.00;;
295;SDS011;132;48.770;9.200;2023-09-07T07:18:35;446.77;;;425.47;;
295;SDS011;132;48.770;9.200;2023-09-07T07:21:22;505.67;;;481.53;;
295;SDS011;132;48.770;9.200;2023-09-07T07:24:10;534.40;;;508.90;;
295;SDS011;132;48.770;9.200;2023-09-07T07:26:57;554.90;;;528.43;;
295;SDS011;132;48.770;9.200;2023-09-07T07:29:44;619.60;;;590.03;;
295;SDS011;132;48.770;9.200;2023-09-07T07:32:31;642.30;;;611.67;;
295;SDS011;132;48.770;9.200;2023-09-07T07:35:18;676.73;;;644.47;;
295;SDS011;132;48.770;9.200;2023-09-07T07:38:05;703.40;;;669.83;;
295;SDS011;132;48.770;9.200;2023-09-07T07:40:56;740.03;;;704.73;;
295;SDS011;132;48.770;9.200;2023-09-07T07:43:43;782.47;;;745.17;;
295;SDS011;132;48.770;9.200;2023-09-07T07:46:29;781.90;;;744.60;;
295;SDS011;132;48.770;9.200;2023-09-07T07:49:16;823.55;;;784.30;;
295;SDS011;132;48.770;9.200;2023-09-07T07:52:03;826.33;;;786.93;;
295;SDS011;132;48.770;9.200;2023-09-07T07:54:50;870.83;;;829.33;;
295;SDS011;132;48.770;9.200;2023-09-07T07:57:37;865.13;;;823.87;;
295;SDS011;132;48.770;9.200;2023-09-07T08:00:23;907.90;;;864.63;;
295;SDS011;132;48.770;9.200;2023-09-07T08:03:13;906.67;;;863.47;;
295;SDS011;132;48.770;9.200;2023-09-07T08:06:00;920.07;;;876.17;;
295;SDS011;132;48.770;9.200;2023-09-07T08:08:47;940.73;;;895.90;;
295;SDS011;132;48.770;9.200;2023-09-07T08:11:35;949.13;;;903.87;;
295;SDS011;132;48.770;9.200;2023-09-07T08:14:23;958.27;;;912.57;;
295;SDS011;132;48.770;9.200;2023-09-07T08:17:11;972.23;;;925.87;;
295;SDS011;132;48.770;9.200;2023-09-07T08:19:57;1006.10;;;958.13;;
295;SDS011;132;48.770;9.200;2023-09-07T08:22:46;1015.80;;;967.40;;
295;SDS011;132;48.770;9.200;2023-09-07T08:25:33;1021.97;;;973.27;;
295;SDS011;132;48.770;9.200;2023-09-07T08:28:19;1032.03;;;982.87;;
295;SDS011;132;48.770;9.200;2023-09-07T08:31:08;1043.63;;;993.87;;
295;SDS011;132;48.770;9.200;2023-09-07T08:33:56;1065.50;;;999.90;;
295;SDS011;132;48.770;9.200;2023-09-07T08:36:44;1065.13;;;999.90;;
295;SDS011;132;48.770;9.200;2023-09-07T08:39:33;1083.77;;;999.90;;
295;SDS011;132;48.770;9.200;2023-09-07T08:42:20;1083.57;;;999.90;;
295;SDS011;132;48.770;9.200;2023-09-07T08:45:07;1089.93;;;999.90;;
295;SDS011;132;48.770;9.200;2023-09-07T08:47:55;1106.10;;;999.90;;
295;SDS011;132;48.770;9.200;2023-09-07T08:50:43;1108.83;;;999.90;;
295;SDS011;132;48.770;9.200;2023-09-07T08:53:35;1129.47;;;999.90;;
295;SDS011;132;48.770;9.200;2023-09-07T08:56:23;1120.57;;;999.90;;
295;SDS011;132;48.770;9.200;2023-09-07T08:59:11;1151.37;;;999.90;;
295;SDS011;132;48.770;9.200;2023-09-07T09:01:57;1156.20;;;999.90;;
295;SDS011;132;48.770;9.200;2023-09-07T09:04:44;1166.50;;;999.90;;
295;SDS011;132;48.770;9.200;2023-09-07T09:07:31;1165.23;;;999.90;;
295;SDS011;132;48.770;9.200;2023-09-07T09:10:18;1161.67;;;999.90;;
295;SDS011;132;48.770;9.200;2023-09-07T09:13:04;1170.23;;;999.90;;
295;SDS011;132;48.770;9.200;2023-09-07T09:15:51;1178.53;;;999.90;;
295;SDS011;132;48.770;9.200;2023-09-07T09:18:38;1187.10;;;999.90;;
295;SDS011;132;48.770;9.200;2023-09-07T09:21:33;1198.87;;;999.90;;
295;SDS011;132;48.770;9.200;2023-09-07T09:24:19;1205.23;;;999.90;;
295;SDS011;132;48.770;9.200;2023-09-07T09:27:06;1208.10;;;999.90;;
295;SDS011;132;48.770;9.200;2023-09-07T09:29:53;1213.90;;;999.90;;
295;SDS011;132;48.770;9.200;2023-09-07T09:32:39;1224.13;;;999.90;;
295;SDS011;132;48.770;9.200;2023-09-07T09:35:27;1232.70;;;999.90;;
295;SDS011;132;48.770;9.200;2023-09-07T09:38:15;1235.87;;;999.90;;
295;SDS011;132;48.770;9.200;2023-09-07T09:41:04;1234.63;;;999.90;;
295;SDS011;132;48.770;9.200;2023-09-07T09:43:52;1246.33;;;999.90;;
295;SDS011;132;48.770;9.200;2023-09-07T09:46:39;1250.30;;;999.90;;
295;SDS011;132;48.770;9.200;2023-09-07T09:49:28;1251.60;;;999.90;;
295;SDS011;132;48.770;9.200;2023-09-07T09:52:15;1259.70;;;999.90;;
295;SDS011;132;48.770;9.200;2023-09-07T09:55:06;1263.53;;;999.90;;
295;SDS011;132;48.770;9.200;2023-09-07T09:57:54;1265.70;;;999.90;;
295;SDS011;132;48.770;9.200;2023-09-07T10:00:47;1262.67;;;999.90;;
295;SDS011;132;48.770;9.200;2023-09-07T10:03:44;1270.33;;;999.90;;
295;SDS011;132;48.770;9.200;2023-09-07T10:06:33;1272.57;;;999.90;;
295;SDS011;132;48.770;9.200;2023-09-07T10:09:21;1273.40;;;999.90;;
295;SDS011;132;48.770;9.200;2023-09-07T10:12:11;1281.90;;;999.90;;
295;SDS011;132;48.770;9.200;2023-09-07T10:14:58;1283.33;;;999.90;;
295;SDS011;132;48.770;9.200;2023-09-07T10:17:44;1283.73;;;999.90;;
295;SDS011;132;48.770;9.200;2023-09-07T10:23:42;1286.27;;;999.90;;
295;SDS011;132;48.770;9.200;2023-09-07T10:26:32;1281.73;;;999.90;;
295;SDS011;132;48.770;9.200;2023-09-07T10:29:19;1284.40;;;999.90;;
295;SDS011;132;48.770;9.200;2023-09-07T10:32:06;1294.37;;;999.90;;
295;SDS011;132;48.770;9.200;2023-09-07T10:34:55;1296.60;;;999.90;;
295;SDS011;132;48.770;9.200;2023-09-07T10:37:43;1295.27;;;999.90;;
295;SDS011;132;48.770;9.200;2023-09-07T10:40:32;1287.60;;;999.90;;
295;SDS011;132;48.770;9.200;2023-09-07T10:43:19;1289.17;;;999.90;;
295;SDS011;132;48.770;9.200;2023-09-07T10:46:06;1290.37;;;999.90;;
295;SDS011;132;48.770;9.200;2023-09-07T10:48:53;1293.90;;;999.90;;
295;SDS011;132;48.770;9.200;2023-09-07T10:51:41;1292.13;;;999.90;;
295;SDS011;132;48.770;9.200;2023-09-07T10:54:29;1291.97;;;999.90;;
295;SDS011;132;48.770;9.200;2023-09-07T10:57:16;1300.07;;;999.90;;
295;SDS011;132;48.770;9.200;2023-09-07T11:00:03;1300.03;;;999.90;;
295;SDS011;132;48.770;9.200;2023-09-07T11:02:51;1293.40;;;999.90;;
295;SDS011;132;48.770;9.200;2023-09-07T11:05:38;1292.10;;;999.90;;
295;SDS011;132;48.770;9.200;2023-09-07T11:08:25;1296.10;;;999.90;;
295;SDS011;132;48.770;9.200;2023-09-07T11:11:13;1289.93;;;999.90;;
295;SDS011;132;48.770;9.200;2023-09-07T11:14:01;1281.60;;;999.90;;
295;SDS011;132;48.770;9.200;2023-09-07T11:16:55;1292.83;;;999.90;;
295;SDS011;132;48.770;9.200;2023-09-07T11:19:42;1293.73;;;999.90;;
295;SDS011;132;48.770;9.200;2023-09-07T11:22:29;1295.87;;;999.90;;
295;SDS011;132;48.770;9.200;2023-09-07T11:25:16;1301.83;;;999.90;;
295;SDS011;132;48.770;9.200;2023-09-07T11:28:04;1305.40;;;999.90;;
295;SDS011;132;48.770;9.200;2023-09-07T11:30:52;1303.50;;;999.90;;
295;SDS011;132;48.770;9.200;2023-09-07T11:33:40;1299.70;;;999.90;;
295;SDS011;132;48.770;9.200;2023-09-07T11:36:27;1293.80;;;999.90;;
295;SDS011;132;48.770;9.200;2023-09-07T11:39:14;1296.27;;;999.90;;
295;SDS011;132;48.770;9.200;2023-09-07T11:42:00;1301.20;;;999.90;;
295;SDS011;132;48.770;9.200;2023-09-07T11:44:47;1290.03;;;999.90;;
295;SDS011;132;48.770;9.200;2023-09-07T11:47:34;1293.00;;;999.90;;
295;SDS011;132;48.770;9.200;2023-09-07T11:50:23;1289.67;;;999.90;;
295;SDS011;132;48.770;9.200;2023-09-07T11:53:10;1290.13;;;999.90;;
295;SDS011;132;48.770;9.200;2023-09-07T11:55:57;1287.60;;;999.90;;
295;SDS011;132;48.770;9.200;2023-09-07T11:58:44;1290.97;;;999.90;;
295;SDS011;132;48.770;9.200;2023-09-07T12:01:30;1284.33;;;999.90;;
295;SDS011;132;48.770;9.200;2023-09-07T12:04:17;1274.20;;;999.90;;
295;SDS011;132;48.770;9.200;2023-09-07T12:07:04;1235.37;;;999.90;;
295;SDS011;132;48.770;9.200;2023-09-07T12:09:53;45.47;;;43.27;;
295;SDS011;132;48.770;9.200;2023-09-07T12:12:43;8.00;;;7.60;;
295;SDS011;132;48.770;9.200;2023-09-07T12:15:29;11.63;;;6.67;;
295;SDS011;132;48.770;9.200;2023-09-07T12:18:16;6.87;;;6.37;;
295;SDS011;132;48.770;9.200;2023-09-07T12:21:03;6.70;;;6.30;;
295;SDS011;132;48.770;9.200;2023-09-07T12:23:49;10.50;;;6.00;;
295;SDS011;132;48.770;9.200;2023-09-07T12:26:36;11.70;;;6.20;;
295;SDS011;132;48.770;9.200;2023-09-07T12:29:22;6.00;;;5.23;;
295;SDS011;132;48.770;9.200;2023-09-07T12:32:09;6.30;;;5.80;;
295;SDS011;132;48.770;9.200;2023-09-07T12:34:56;7.40;;;6.17;;
295;SDS011;132;48.770;9.200;2023-09-07T12:37:43;6.70;;;5.87;;
295;SDS011;132;48.770;9.200;2023-09-07T12:40:29;6.90;;;5.80;;
295;SDS011;132;48.770;9.200;2023-09-07T12:43:16;7.50;;;6.00;;
295;SDS011;132;48.770;9.200;2023-09-07T12:46:02;7.30;;;5.80;;
295;SDS011;132;48.770;9.200;2023-09-07T12:48:49;8.70;;;6.00;;
295;SDS011;132;48.770;9.200;2023-09-07T12:51:36;6.00;;;5.33;;
295;SDS011;132;48.770;9.200;2023-09-07T12:54:23;5.90;;;5.60;;
295;SDS011;132;48.770;9.200;2023-09-07T12:57:09;8.07;;;5.80;;
295;SDS011;132;48.770;9.200;2023-09-07T12:59:56;8.30;;;5.97;;
295;SDS011;132;48.770;9.200;2023-09-07T13:02:42;11.00;;;5.40;;
295;SDS011;132;48.770;9.200;2023-09-07T13:05:29;7.70;;;5.77;;
295;SDS011;132;48.770;9.200;2023-09-07T13:08:16;5.80;;;5.30;;
295;SDS011;132;48.770;9.200;2023-09-07T13:11:02;5.70;;;5.10;;
295;SDS011;132;48.770;9.200;2023-09-07T13:13:49;6.90;;;5.60;;
295;SDS011;132;48.770;9.200;2023-09-07T13:16:36;8.03;;;5.50;;
295;SDS011;132;48.770;9.200;2023-09-07T13:19:22;8.80;;;5.40;;
295;SDS011;132;48.770;9.200;2023-09-07T13:22:09;5.97;;;5.37;;
295;SDS011;132;48.770;9.200;2023-09-07T13:24:56;12.23;;;5.07;;
295;SDS011;132;48.770;9.200;2023-09-07T13:27:42;7.87;;;5.23;;
295;SDS011;132;48.770;9.200;2023-09-07T13:30:29;8.93;;;5.10;;
295;SDS011;132;48.770;9.200;2023-09-07T13:33:16;5.40;;;5.00;;
295;SDS011;132;48.770;9.200;2023-09-07T13:36:03;7.33;;;5.03;;
295;SDS011;132;48.770;9.200;2023-09-07T13:38:50;7.60;;;5.57;;
295;SDS011;132;48.770;9.200;2023-09-07T13:41:36;6.57;;;5.50;;
295;SDS011;132;48.770;9.200;2023-09-07T13:44:23;12.10;;;5.50;;
295;SDS011;132;48.770;9.200;2023-09-07T13:47:09;5.50;;;4.97;;
295;SDS011;132;48.770;9.200;2023-09-07T13:49:56;6.67;;;4.97;;
295;SDS011;132;48.770;9.200;2023-09-07T13:52:42;6.40;;;5.03;;
295;SDS011;132;48.770;9.200;2023-09-07T13:55:29;5.90;;;5.07;;
295;SDS011;132;48.770;9.200;2023-09-07T13:58:16;7.30;;;5.40;;
295;SDS011;132;48.770;9.200;2023-09-07T14:01:02;10.10;;;5.30;;
295;SDS011;132;48.770;9.200;2023-09-07T14:03:49;7.77;;;5.33;;
295;SDS011;132;48.770;9.200;2023-09-07T14:06:36;7.93;;;5.40;;
295;SDS011;132;48.770;9.200;2023-09-07T14:09:22;5.63;;;4.70;;
295;SDS011;132;48.770;9.200;2023-09-07T14:12:09;7.37;;;5.17;;
295;SDS011;132;48.770;9.200;2023-09-07T14:14:55;7.00;;;5.07;;
295;SDS011;132;48.770;9.200;2023-09-07T14:17:42;7.93;;;4.87;;
295;SDS011;132;48.770;9.200;2023-09-07T14:20:28;8.23;;;4.90;;
295;SDS011;132;48.770;9.200;2023-09-07T14:23:15;7.07;;;5.00;;
295;SDS011;132;48.770;9.200;2023-09-07T14:26:02;5.50;;;4.80;;
295;SDS011;132;48.770;9.200;2023-09-07T14:28:48;5.93;;;5.00;;
295;SDS011;132;48.770;9.200;2023-09-07T14:31:36;9.13;;;5.30;;
295;SDS011;132;48.770;9.200;2023-09-07T14:34:23;6.90;;;5.10;;
295;SDS011;132;48.770;9.200;2023-09-07T14:37:09;7.07;;;5.13;;
295;SDS011;132;48.770;9.200;2023-09-07T14:39:56;8.33;;;5.40;;
295;SDS011;132;48.770;9.200;2023-09-07T14:42:45;8.97;;;5.40;;
295;SDS011;132;48.770;9.200;2023-09-07T14:45:33;6.00;;;5.10;;
295;SDS011;132;48.770;9.200;2023-09-07T14:48:19;8.00;;;4.90;;
295;SDS011;132;48.770;9.200;2023-09-07T14:51:06;7.43;;;5.20;;
295;SDS011;132;48.770;9.200;2023-09-07T14:53:52;8.33;;;5.07;;
295;SDS011;132;48.770;9.200;2023-09-07T14:56:39;6.20;;;5.03;;
295;SDS011;132;48.770;9.200;2023-09-07T14:59:26;7.40;;;4.90;;
295;SDS011;132;48.770;9.200;2023-09-07T15:02:12;8.17;;;5.00;;
295;SDS011;132;48.770;9.200;2023-09-07T15:04:59;6.77;;;4.80;;
295;SDS011;132;48.770;9.200;2023-09-07T15:07:45;6.67;;;4.80;;
295;SDS011;132;48.770;9.200;2023-09-07T15:10:32;5.27;;;4.77;;
295;SDS011;132;48.770;9.200;2023-09-07T15:13:22;7.30;;;4.87;;
295;SDS011;132;48.770;9.200;2023-09-07T15:16:09;5.37;;;4.87;;
295;SDS011;132;48.770;9.200;2023-09-07T15:18:56;6.33;;;5.10;;
295;SDS011;132;48.770;9.200;2023-09-07T15:21:44;6.83;;;5.30;;
295;SDS011;132;48.770;9.200;2023-09-07T15:24:30;7.50;;;5.07;;
295;SDS011;132;48.770;9.200;2023-09-07T15:27:17;7.03;;;5.17;;
295;SDS011;132;48.770;9.200;2023-09-07T15:30:03;7.80;;;5.30;;
295;SDS011;132;48.770;9.200;2023-09-07T15:32:50;9.63;;;5.50;;
295;SDS011;132;48.770;9.200;2023-09-07T15:35:37;11.30;;;5.40;;
295;SDS011;132;48.770;9.200;2023-09-07T15:38:24;8.27;;;5.13;;
295;SDS011;132;48.770;9.200;2023-09-07T15:41:11;6.20;;;4.80;;
295;SDS011;132;48.770;9.200;2023-09-07T15:43:58;7.17;;;5.10;;
295;SDS011;132;48.770;9.200;2023-09-07T15:46:45;7.50;;;5.20;;
295;SDS011;132;48.770;9.200;2023-09-07T15:49:31;7.63;;;5.50;;
295;SDS011;132;48.770;9.200;2023-09-07T15:52:19;6.97;;;5.03;;
295;SDS011;132;48.770;9.200;2023-09-07T15:55:05;8.37;;;5.00;;
295;SDS011;132;48.770;9.200;2023-09-07T15:57:52;9.00;;;4.80;;
295;SDS011;132;48.770;9.200;2023-09-07T16:00:39;9.00;;;5.10;;
295;SDS011;132;48.770;9.200;2023-09-07T16:03:26;7.60;;;5.33;;
295;SDS011;132;48.770;9.200;2023-09-07T16:06:13;6.20;;;4.93;;
295;SDS011;132;48.770;9.200;2023-09-07T16:09:00;7.90;;;4.97;;
295;SDS011;132;48.770;9.200;2023-09-07T16:11:46;9.30;;;5.07;;
295;SDS011;132;48.770;9.200;2023-09-07T16:14:33;7.33;;;5.10;;
295;SDS011;132;48.770;9.200;2023-09-07T16:17:19;8.10;;;4.80;;
295;SDS011;132;48.770;9.200;2023-09-07T16:20:06;7.53;;;4.73;;
295;SDS011;132;48.770;9.200;2023-09-07T16:22:54;5.27;;;4.73;;
295;SDS011;132;48.770;9.200;2023-09-07T16:25:41;9.57;;;4.87;;
295;SDS011;132;48.770;9.200;2023-09-07T16:28:27;6.70;;;4.80;;
295;SDS011;132;48.770;9.200;2023-09-07T16:31:14;9.40;;;4.80;;
295;SDS011;132;48.770;9.200;2023-09-07T16:34:01;8.40;;;4.60;;
295;SDS011;132;48.770;9.200;2023-09-07T16:36:47;9.17;;;5.10;;
295;SDS011;132;48.770;9.200;2023-09-07T16:39:34;8.67;;;4.90;;
295;SDS011;132;48.770;9.200;2023-09-07T16:42:21;10.03;;;4.90;;
295;SDS011;132;48.770;9.200;2023-09-07T16:45:08;6.47;;;5.00;;
295;SDS011;132;48.770;9.200;2023-09-07T16:47:54;9.17;;;5.00;;
295;SDS011;132;48.770;9.200;2023-09-07T16:50:44;8.30;;;5.30;;
295;SDS011;132;48.770;9.200;2023-09-07T16:53:31;8.30;;;5.23;;
295;SDS011;132;48.770;9.200;2023-09-07T16:56:18;7.70;;;4.60;;
295;SDS011;132;48.770;9.200;2023-09-07T16:59:06;7.37;;;4.80;;
295;SDS011;132;48.770;9.200;2023-09-07T17:01:53;6.13;;;4.60;;
295;SDS011;132;48.770;9.200;2023-09-07T17:04:41;5.80;;;4.63;;
295;SDS011;132;48.770;9.200;2023-09-07T17:07:27;6.87;;;4.97;;
295;SDS011;132;48.770;9.200;2023-09-07T17:10:14;6.50;;;4.80;;
295;SDS011;132;48.770;9.200;2023-09-07T17:13:01;7.40;;;4.97;;
295;SDS011;132;48.770;9.200;2023-09-07T17:15:48;13.30;;;4.53;;
295;SDS011;132;48.770;9.200;2023-09-07T17:18:35;6.33;;;4.70;;
295;SDS011;132;48.770;9.200;2023-09-07T17:21:21;11.40;;;4.60;;
295;SDS011;132;48.770;9.200;2023-09-07T17:24:08;6.47;;;4.57;;
295;SDS011;132;48.770;9.200;2023-09-07T17:26:56;8.07;;;4.40;;
295;SDS011;132;48.770;9.200;2023-09-07T17:29:43;8.07;;;5.10;;